Lawton, North Dakota
Current Conditions -  °F | °C
As of 12:55 AM on Sunday 21 Dec 2014 (Local Time) from KDVL Reporting Station
Broken Clouds Broken Clouds  
Wind Chill: 18°   Ceiling: 6500
Heat Index: 27°   Visibility: 7mi
Dew Point: 19°   Wind: 8mph
Humidity: 74%   Direction: 160°SSE
Pressure: 29.72"   Gusts: NA
Location:  48.3°N, 98.37°W
Report Text: KDVL 210655Z AUTO 16007KT 7SM FEW031 SCT045 BKN065 M03/M07 A2972 RMK AO1
Loading
Personal Weather Stations






























Interactive Weather Map New forecast layout! Learn more

10-Day Weather Forecast

Advertisements
Track Severe Weather on mobile